sensor_id;sensor_type;location;lat;lon;timestamp;pressure;altitude;pressure_sealevel;temperature;humidity
17383;BME280;8809;51.892;8.384;2023-01-29T00:01:31;101961.41;;;-1.50;100.00
17383;BME280;8809;51.892;8.384;2023-01-29T00:03:58;101950.59;;;-1.47;100.00
17383;BME280;8809;51.892;8.384;2023-01-29T00:06:26;101944.56;;;-1.47;100.00
17383;BME280;8809;51.892;8.384;2023-01-29T00:08:53;101935.25;;;-1.47;100.00
17383;BME280;8809;51.892;8.384;2023-01-29T00:11:23;101942.75;;;-1.48;100.00
17383;BME280;8809;51.892;8.384;2023-01-29T00:13:50;101937.81;;;-1.47;100.00
17383;BME280;8809;51.892;8.384;2023-01-29T00:16:18;101938.88;;;-1.45;100.00
17383;BME280;8809;51.892;8.384;2023-01-29T00:18:45;101939.81;;;-1.44;100.00
17383;BME280;8809;51.892;8.384;2023-01-29T00:21:13;101932.50;;;-1.48;100.00
17383;BME280;8809;51.892;8.384;2023-01-29T00:23:41;101929.38;;;-1.46;100.00
17383;BME280;8809;51.892;8.384;2023-01-29T00:26:09;101932.13;;;-1.44;100.00
17383;BME280;8809;51.892;8.384;2023-01-29T00:28:37;101930.31;;;-1.45;100.00
17383;BME280;8809;51.892;8.384;2023-01-29T00:31:08;101931.03;;;-1.46;100.00
17383;BME280;8809;51.892;8.384;2023-01-29T00:33:35;101926.84;;;-1.46;100.00
17383;BME280;8809;51.892;8.384;2023-01-29T00:36:03;101928.66;;;-1.45;100.00
17383;BME280;8809;51.892;8.384;2023-01-29T00:38:30;101925.00;;;-1.47;100.00
17383;BME280;8809;51.892;8.384;2023-01-29T00:40:57;101934.34;;;-1.47;100.00
17383;BME280;8809;51.892;8.384;2023-01-29T00:43:43;101931.25;;;-1.52;100.00
17383;BME280;8809;51.892;8.384;2023-01-29T00:46:27;101941.50;;;-1.52;100.00
17383;BME280;8809;51.892;8.384;2023-01-29T00:48:54;101940.75;;;-1.51;100.00
17383;BME280;8809;51.892;8.384;2023-01-29T00:51:21;101934.72;;;-1.52;100.00
17383;BME280;8809;51.892;8.384;2023-01-29T00:53:48;101932.75;;;-1.54;100.00
17383;BME280;8809;51.892;8.384;2023-01-29T00:56:15;101940.56;;;-1.53;100.00
17383;BME280;8809;51.892;8.384;2023-01-29T00:58:43;101931.31;;;-1.59;100.00
17383;BME280;8809;51.892;8.384;2023-01-29T01:01:10;101933.88;;;-1.59;100.00
17383;BME280;8809;51.892;8.384;2023-01-29T01:03:37;101925.47;;;-1.58;100.00
17383;BME280;8809;51.892;8.384;2023-01-29T01:06:08;101924.56;;;-1.59;100.00
17383;BME280;8809;51.892;8.384;2023-01-29T01:08:35;101931.84;;;-1.55;100.00
17383;BME280;8809;51.892;8.384;2023-01-29T01:11:21;101927.28;;;-1.57;100.00
17383;BME280;8809;51.892;8.384;2023-01-29T01:13:49;101923.66;;;-1.59;100.00
17383;BME280;8809;51.892;8.384;2023-01-29T01:16:17;101925.47;;;-1.58;100.00
17383;BME280;8809;51.892;8.384;2023-01-29T01:18:45;101922.75;;;-1.60;100.00
17383;BME280;8809;51.892;8.384;2023-01-29T01:21:12;101921.84;;;-1.60;100.00
17383;BME280;8809;51.892;8.384;2023-01-29T01:23:39;101921.34;;;-1.65;100.00
17383;BME280;8809;51.892;8.384;2023-01-29T01:26:09;101912.97;;;-1.71;100.00
17383;BME280;8809;51.892;8.384;2023-01-29T01:28:36;101918.69;;;-1.73;100.00
17383;BME280;8809;51.892;8.384;2023-01-29T01:31:09;101909.56;;;-1.78;100.00
17383;BME280;8809;51.892;8.384;2023-01-29T01:33:37;101895.69;;;-1.80;100.00
17383;BME280;8809;51.892;8.384;2023-01-29T01:36:05;101885.47;;;-1.80;100.00
17383;BME280;8809;51.892;8.384;2023-01-29T01:38:35;101878.53;;;-1.81;100.00
17383;BME280;8809;51.892;8.384;2023-01-29T01:41:09;101875.13;;;-1.89;100.00
17383;BME280;8809;51.892;8.384;2023-01-29T01:43:48;101888.84;;;-1.89;100.00
17383;BME280;8809;51.892;8.384;2023-01-29T01:46:17;101884.06;;;-1.85;100.00
17383;BME280;8809;51.892;8.384;2023-01-29T01:48:49;101887.00;;;-1.90;100.00
17383;BME280;8809;51.892;8.384;2023-01-29T01:51:19;101880.81;;;-1.92;100.00
17383;BME280;8809;51.892;8.384;2023-01-29T01:53:51;101872.75;;;-1.88;100.00
17383;BME280;8809;51.892;8.384;2023-01-29T01:56:23;101881.16;;;-1.89;100.00
17383;BME280;8809;51.892;8.384;2023-01-29T01:58:54;101886.94;;;-1.82;100.00
17383;BME280;8809;51.892;8.384;2023-01-29T02:01:24;101882.91;;;-1.80;100.00
17383;BME280;8809;51.892;8.384;2023-01-29T02:03:57;101891.50;;;-1.80;100.00
17383;BME280;8809;51.892;8.384;2023-01-29T02:06:43;101891.28;;;-1.74;100.00
17383;BME280;8809;51.892;8.384;2023-01-29T02:09:30;101903.34;;;-1.73;100.00
17383;BME280;8809;51.892;8.384;2023-01-29T02:12:03;101901.50;;;-1.74;100.00
17383;BME280;8809;51.892;8.384;2023-01-29T02:14:30;101904.63;;;-1.77;100.00
17383;BME280;8809;51.892;8.384;2023-01-29T02:17:00;101910.09;;;-1.74;100.00
17383;BME280;8809;51.892;8.384;2023-01-29T02:19:37;101907.53;;;-1.74;100.00
17383;BME280;8809;51.892;8.384;2023-01-29T02:22:26;101904.81;;;-1.75;100.00
17383;BME280;8809;51.892;8.384;2023-01-29T02:25:01;101897.31;;;-1.74;100.00
17383;BME280;8809;51.892;8.384;2023-01-29T02:27:45;101897.44;;;-1.72;100.00
17383;BME280;8809;51.892;8.384;2023-01-29T02:30:20;101904.38;;;-1.71;100.00
17383;BME280;8809;51.892;8.384;2023-01-29T02:32:54;101900.34;;;-1.69;100.00
17383;BME280;8809;51.892;8.384;2023-01-29T02:35:29;101901.44;;;-1.67;100.00
17383;BME280;8809;51.892;8.384;2023-01-29T02:38:07;101917.88;;;-1.65;100.00
17383;BME280;8809;51.892;8.384;2023-01-29T02:40:42;101918.78;;;-1.65;100.00
17383;BME280;8809;51.892;8.384;2023-01-29T02:43:21;101923.00;;;-1.65;100.00
17383;BME280;8809;51.892;8.384;2023-01-29T02:46:01;101931.41;;;-1.66;100.00
17383;BME280;8809;51.892;8.384;2023-01-29T02:48:38;101924.84;;;-1.71;100.00
17383;BME280;8809;51.892;8.384;2023-01-29T02:51:10;101931.22;;;-1.68;100.00
17383;BME280;8809;51.892;8.384;2023-01-29T02:53:45;101927.59;;;-1.70;100.00
17383;BME280;8809;51.892;8.384;2023-01-29T02:56:17;101933.25;;;-1.72;100.00
17383;BME280;8809;51.892;8.384;2023-01-29T02:58:51;101923.78;;;-1.73;100.00
17383;BME280;8809;51.892;8.384;2023-01-29T03:01:24;101918.81;;;-1.72;100.00
17383;BME280;8809;51.892;8.384;2023-01-29T03:03:57;101923.78;;;-1.73;100.00
17383;BME280;8809;51.892;8.384;2023-01-29T03:06:30;101919.81;;;-1.78;100.00
17383;BME280;8809;51.892;8.384;2023-01-29T03:09:00;101914.50;;;-1.80;100.00
17383;BME280;8809;51.892;8.384;2023-01-29T03:11:32;101911.03;;;-1.80;100.00
17383;BME280;8809;51.892;8.384;2023-01-29T03:14:03;101915.97;;;-1.82;100.00
17383;BME280;8809;51.892;8.384;2023-01-29T03:16:38;101911.41;;;-1.77;100.00
17383;BME280;8809;51.892;8.384;2023-01-29T03:19:09;101909.56;;;-1.78;100.00
17383;BME280;8809;51.892;8.384;2023-01-29T03:21:43;101912.13;;;-1.78;100.00
17383;BME280;8809;51.892;8.384;2023-01-29T03:24:28;101912.31;;;-1.77;100.00
17383;BME280;8809;51.892;8.384;2023-01-29T03:27:15;101919.63;;;-1.80;100.00
17383;BME280;8809;51.892;8.384;2023-01-29T03:30:02;101908.66;;;-1.79;100.00
17383;BME280;8809;51.892;8.384;2023-01-29T03:32:49;101912.88;;;-1.79;100.00
17383;BME280;8809;51.892;8.384;2023-01-29T03:35:20;101910.88;;;-1.82;100.00
17383;BME280;8809;51.892;8.384;2023-01-29T03:37:58;101899.72;;;-1.82;100.00
17383;BME280;8809;51.892;8.384;2023-01-29T03:40:28;101907.38;;;-1.75;100.00
17383;BME280;8809;51.892;8.384;2023-01-29T03:43:04;101902.25;;;-1.75;100.00
17383;BME280;8809;51.892;8.384;2023-01-29T03:45:39;101901.16;;;-1.77;100.00
17383;BME280;8809;51.892;8.384;2023-01-29T03:48:15;101902.25;;;-1.75;100.00
17383;BME280;8809;51.892;8.384;2023-01-29T03:50:55;101896.72;;;-1.71;100.00
17383;BME280;8809;51.892;8.384;2023-01-29T03:53:27;101896.41;;;-1.74;100.00
17383;BME280;8809;51.892;8.384;2023-01-29T03:55:59;101890.75;;;-1.79;100.00
17383;BME280;8809;51.892;8.384;2023-01-29T03:58:34;101898.44;;;-1.79;100.00
17383;BME280;8809;51.892;8.384;2023-01-29T04:01:08;101898.59;;;-1.77;100.00
17383;BME280;8809;51.892;8.384;2023-01-29T04:03:39;101892.41;;;-1.79;100.00
17383;BME280;8809;51.892;8.384;2023-01-29T04:06:11;101894.22;;;-1.78;100.00
17383;BME280;8809;51.892;8.384;2023-01-29T04:08:47;101895.47;;;-1.75;100.00
17383;BME280;8809;51.892;8.384;2023-01-29T04:11:17;101888.03;;;-1.80;100.00
17383;BME280;8809;51.892;8.384;2023-01-29T04:13:46;101884.72;;;-1.79;100.00
17383;BME280;8809;51.892;8.384;2023-01-29T04:16:19;101887.81;;;-1.75;100.00
17383;BME280;8809;51.892;8.384;2023-01-29T04:18:52;101873.19;;;-1.76;100.00
17383;BME280;8809;51.892;8.384;2023-01-29T04:21:20;101872.84;;;-1.79;100.00
17383;BME280;8809;51.892;8.384;2023-01-29T04:23:50;101872.47;;;-1.75;100.00
17383;BME280;8809;51.892;8.384;2023-01-29T04:26:28;101858.41;;;-1.78;100.00
17383;BME280;8809;51.892;8.384;2023-01-29T04:29:08;101853.88;;;-1.81;100.00
17383;BME280;8809;51.892;8.384;2023-01-29T04:31:46;101839.13;;;-1.83;100.00
17383;BME280;8809;51.892;8.384;2023-01-29T04:34:22;101833.41;;;-1.81;100.00
17383;BME280;8809;51.892;8.384;2023-01-29T04:37:01;101823.53;;;-1.78;100.00
17383;BME280;8809;51.892;8.384;2023-01-29T04:39:39;101813.63;;;-1.75;100.00
17383;BME280;8809;51.892;8.384;2023-01-29T04:42:13;101811.25;;;-1.73;100.00
17383;BME280;8809;51.892;8.384;2023-01-29T04:44:47;101805.97;;;-1.75;100.00
17383;BME280;8809;51.892;8.384;2023-01-29T04:47:24;101800.69;;;-1.76;100.00
17383;BME280;8809;51.892;8.384;2023-01-29T04:50:02;101786.63;;;-1.80;100.00
17383;BME280;8809;51.892;8.384;2023-01-29T04:52:39;101779.53;;;-1.82;100.00
17383;BME280;8809;51.892;8.384;2023-01-29T04:55:17;101774.41;;;-1.82;100.00
17383;BME280;8809;51.892;8.384;2023-01-29T04:57:49;101762.41;;;-1.83;100.00
17383;BME280;8809;51.892;8.384;2023-01-29T05:00:21;101754.28;;;-1.79;100.00
17383;BME280;8809;51.892;8.384;2023-01-29T05:02:51;101757.03;;;-1.78;100.00
17383;BME280;8809;51.892;8.384;2023-01-29T05:05:20;101764.53;;;-1.79;100.00
17383;BME280;8809;51.892;8.384;2023-01-29T05:07:48;101763.78;;;-1.78;100.00
17383;BME280;8809;51.892;8.384;2023-01-29T05:10:18;101762.06;;;-1.87;100.00
17383;BME280;8809;51.892;8.384;2023-01-29T05:12:50;101753.81;;;-1.84;100.00
17383;BME280;8809;51.892;8.384;2023-01-29T05:15:23;101767.78;;;-1.73;100.00
17383;BME280;8809;51.892;8.384;2023-01-29T05:17:51;101767.69;;;-1.66;100.00
17383;BME280;8809;51.892;8.384;2023-01-29T05:20:29;101780.94;;;-1.62;100.00
17383;BME280;8809;51.892;8.384;2023-01-29T05:22:57;101780.94;;;-1.62;100.00
17383;BME280;8809;51.892;8.384;2023-01-29T05:25:26;101790.22;;;-1.55;100.00
17383;BME280;8809;51.892;8.384;2023-01-29T05:27:53;101792.34;;;-1.51;100.00
17383;BME280;8809;51.892;8.384;2023-01-29T05:30:34;101798.72;;;-1.47;100.00
17383;BME280;8809;51.892;8.384;2023-01-29T05:33:01;101804.31;;;-1.43;100.00
17383;BME280;8809;51.892;8.384;2023-01-29T05:35:30;101798.63;;;-1.40;100.00
17383;BME280;8809;51.892;8.384;2023-01-29T05:37:59;101806.47;;;-1.39;100.00
17383;BME280;8809;51.892;8.384;2023-01-29T05:40:26;101810.84;;;-1.38;100.00
17383;BME280;8809;51.892;8.384;2023-01-29T05:42:53;101814.16;;;-1.39;100.00
17383;BME280;8809;51.892;8.384;2023-01-29T05:45:20;101808.47;;;-1.36;100.00
17383;BME280;8809;51.892;8.384;2023-01-29T05:47:47;101809.03;;;-1.39;100.00
17383;BME280;8809;51.892;8.384;2023-01-29T05:50:15;101809.75;;;-1.40;100.00
17383;BME280;8809;51.892;8.384;2023-01-29T05:52:45;101809.38;;;-1.36;100.00
17383;BME280;8809;51.892;8.384;2023-01-29T05:55:11;101808.63;;;-1.35;100.00
17383;BME280;8809;51.892;8.384;2023-01-29T05:57:39;101805.00;;;-1.37;100.00
17383;BME280;8809;51.892;8.384;2023-01-29T06:00:08;101814.47;;;-1.36;100.00
17383;BME280;8809;51.892;8.384;2023-01-29T06:02:35;101820.34;;;-1.37;100.00
17383;BME280;8809;51.892;8.384;2023-01-29T06:05:02;101820.50;;;-1.35;100.00
17383;BME280;8809;51.892;8.384;2023-01-29T06:07:29;101836.00;;;-1.34;100.00
17383;BME280;8809;51.892;8.384;2023-01-29T06:09:57;101828.50;;;-1.32;100.00
17383;BME280;8809;51.892;8.384;2023-01-29T06:12:25;101834.69;;;-1.30;100.00
17383;BME280;8809;51.892;8.384;2023-01-29T06:14:52;101835.03;;;-1.27;100.00
17383;BME280;8809;51.892;8.384;2023-01-29T06:17:19;101828.28;;;-1.27;100.00
17383;BME280;8809;51.892;8.384;2023-01-29T06:19:46;101818.03;;;-1.27;100.00
17383;BME280;8809;51.892;8.384;2023-01-29T06:22:13;101815.13;;;-1.30;100.00
17383;BME280;8809;51.892;8.384;2023-01-29T06:24:40;101807.28;;;-1.31;100.00
17383;BME280;8809;51.892;8.384;2023-01-29T06:27:08;101806.38;;;-1.32;100.00
17383;BME280;8809;51.892;8.384;2023-01-29T06:29:35;101813.13;;;-1.32;100.00
17383;BME280;8809;51.892;8.384;2023-01-29T06:32:02;101832.13;;;-1.30;100.00
17383;BME280;8809;51.892;8.384;2023-01-29T06:34:29;101825.19;;;-1.31;100.00
17383;BME280;8809;51.892;8.384;2023-01-29T06:36:56;101823.06;;;-1.35;100.00
17383;BME280;8809;51.892;8.384;2023-01-29T06:39:23;101833.63;;;-1.32;100.00
17383;BME280;8809;51.892;8.384;2023-01-29T06:41:50;101823.97;;;-1.35;100.00
17383;BME280;8809;51.892;8.384;2023-01-29T06:44:18;101838.56;;;-1.34;100.00
17383;BME280;8809;51.892;8.384;2023-01-29T06:46:45;101837.09;;;-1.32;100.00
17383;BME280;8809;51.892;8.384;2023-01-29T06:49:12;101831.06;;;-1.32;100.00
17383;BME280;8809;51.892;8.384;2023-01-29T06:51:39;101832.72;;;-1.33;100.00
17383;BME280;8809;51.892;8.384;2023-01-29T06:54:08;101833.63;;;-1.32;100.00
17383;BME280;8809;51.892;8.384;2023-01-29T06:56:35;101838.56;;;-1.34;100.00
17383;BME280;8809;51.892;8.384;2023-01-29T06:59:02;101837.81;;;-1.33;100.00
17383;BME280;8809;51.892;8.384;2023-01-29T07:01:30;101833.78;;;-1.31;100.00
17383;BME280;8809;51.892;8.384;2023-01-29T07:03:57;101837.25;;;-1.30;100.00
17383;BME280;8809;51.892;8.384;2023-01-29T07:06:26;101828.84;;;-1.29;100.00
17383;BME280;8809;51.892;8.384;2023-01-29T07:08:54;101821.56;;;-1.33;100.00
17383;BME280;8809;51.892;8.384;2023-01-29T07:11:21;101825.78;;;-1.34;100.00
17383;BME280;8809;51.892;8.384;2023-01-29T07:13:47;101829.41;;;-1.32;100.00
17383;BME280;8809;51.892;8.384;2023-01-29T07:16:14;101817.19;;;-1.34;100.00
17383;BME280;8809;51.892;8.384;2023-01-29T07:18:42;101817.34;;;-1.33;100.00
17383;BME280;8809;51.892;8.384;2023-01-29T07:21:09;101825.78;;;-1.34;100.00
17383;BME280;8809;51.892;8.384;2023-01-29T07:23:36;101819.16;;;-1.32;100.00
17383;BME280;8809;51.892;8.384;2023-01-29T07:26:05;101822.81;;;-1.30;100.00
17383;BME280;8809;51.892;8.384;2023-01-29T07:28:35;101823.56;;;-1.31;100.00
17383;BME280;8809;51.892;8.384;2023-01-29T07:31:02;101836.69;;;-1.28;100.00
17383;BME280;8809;51.892;8.384;2023-01-29T07:33:29;101838.50;;;-1.27;100.00
17383;BME280;8809;51.892;8.384;2023-01-29T07:35:58;101833.38;;;-1.27;100.00
17383;BME280;8809;51.892;8.384;2023-01-29T07:38:25;101831.75;;;-1.26;100.00
17383;BME280;8809;51.892;8.384;2023-01-29T07:40:52;101828.44;;;-1.25;100.00
17383;BME280;8809;51.892;8.384;2023-01-29T07:43:19;101820.91;;;-1.24;100.00
17383;BME280;8809;51.892;8.384;2023-01-29T07:45:46;101827.09;;;-1.22;100.00
17383;BME280;8809;51.892;8.384;2023-01-29T07:48:13;101812.66;;;-1.21;100.00
17383;BME280;8809;51.892;8.384;2023-01-29T07:50:40;101798.19;;;-1.21;100.00
17383;BME280;8809;51.892;8.384;2023-01-29T07:53:11;101813.28;;;-1.15;100.00
17383;BME280;8809;51.892;8.384;2023-01-29T07:55:39;101811.63;;;-1.15;100.00
17383;BME280;8809;51.892;8.384;2023-01-29T07:58:07;101822.03;;;-1.13;100.00
17383;BME280;8809;51.892;8.384;2023-01-29T08:00:34;101812.72;;;-1.13;100.00
17383;BME280;8809;51.892;8.384;2023-01-29T08:03:02;101802.63;;;-1.11;100.00
17383;BME280;8809;51.892;8.384;2023-01-29T08:05:29;101794.22;;;-1.10;100.00
17383;BME280;8809;51.892;8.384;2023-01-29T08:07:57;101781.75;;;-1.07;100.00
17383;BME280;8809;51.892;8.384;2023-01-29T08:10:25;101785.53;;;-1.03;100.00
17383;BME280;8809;51.892;8.384;2023-01-29T08:12:53;101786.59;;;-1.01;100.00
17383;BME280;8809;51.892;8.384;2023-01-29T08:15:20;101785.13;;;-0.99;100.00
17383;BME280;8809;51.892;8.384;2023-01-29T08:17:47;101781.81;;;-0.98;100.00
17383;BME280;8809;51.892;8.384;2023-01-29T08:20:14;101782.09;;;-0.95;100.00
17383;BME280;8809;51.892;8.384;2023-01-29T08:22:44;101777.31;;;-0.92;100.00
17383;BME280;8809;51.892;8.384;2023-01-29T08:25:11;101761.97;;;-0.92;100.00
17383;BME280;8809;51.892;8.384;2023-01-29T08:27:39;101759.72;;;-0.89;100.00
17383;BME280;8809;51.892;8.384;2023-01-29T08:30:11;101759.44;;;-0.84;100.00
17383;BME280;8809;51.892;8.384;2023-01-29T08:32:39;101757.78;;;-0.83;100.00
17383;BME280;8809;51.892;8.384;2023-01-29T08:35:06;101757.06;;;-0.82;100.00
17383;BME280;8809;51.892;8.384;2023-01-29T08:37:33;101751.94;;;-0.82;100.00
17383;BME280;8809;51.892;8.384;2023-01-29T08:40:00;101748.22;;;-0.77;100.00
17383;BME280;8809;51.892;8.384;2023-01-29T08:42:27;101743.09;;;-0.77;100.00
17383;BME280;8809;51.892;8.384;2023-01-29T08:44:56;101745.19;;;-0.73;100.00
17383;BME280;8809;51.892;8.384;2023-01-29T08:47:22;101749.59;;;-0.72;100.00
17383;BME280;8809;51.892;8.384;2023-01-29T08:49:49;101747.00;;;-0.72;100.00
17383;BME280;8809;51.892;8.384;2023-01-29T08:52:16;101754.88;;;-0.70;100.00
17383;BME280;8809;51.892;8.384;2023-01-29T08:54:43;101758.63;;;-0.67;100.00
17383;BME280;8809;51.892;8.384;2023-01-29T08:57:10;101760.16;;;-0.69;100.00
17383;BME280;8809;51.892;8.384;2023-01-29T08:59:36;101765.16;;;-0.62;100.00
17383;BME280;8809;51.892;8.384;2023-01-29T09:02:05;101758.22;;;-0.63;100.00
17383;BME280;8809;51.892;8.384;2023-01-29T09:04:38;101748.13;;;-0.61;100.00
17383;BME280;8809;51.892;8.384;2023-01-29T09:07:05;101736.41;;;-0.59;100.00
17383;BME280;8809;51.892;8.384;2023-01-29T09:09:32;101743.34;;;-0.58;100.00
17383;BME280;8809;51.892;8.384;2023-01-29T09:11:59;101728.41;;;-0.54;100.00
17383;BME280;8809;51.892;8.384;2023-01-29T09:14:25;101725.09;;;-0.53;100.00
17383;BME280;8809;51.892;8.384;2023-01-29T09:16:53;101723.03;;;-0.48;100.00
17383;BME280;8809;51.892;8.384;2023-01-29T09:19:21;101730.84;;;-0.47;100.00
17383;BME280;8809;51.892;8.384;2023-01-29T09:21:48;101727.72;;;-0.44;100.00
17383;BME280;8809;51.892;8.384;2023-01-29T09:24:15;101724.72;;;-0.40;100.00
17383;BME280;8809;51.892;8.384;2023-01-29T09:26:42;101730.00;;;-0.39;100.00
17383;BME280;8809;51.892;8.384;2023-01-29T09:29:09;101727.75;;;-0.35;100.00
17383;BME280;8809;51.892;8.384;2023-01-29T09:31:38;101722.19;;;-0.31;100.00
17383;BME280;8809;51.892;8.384;2023-01-29T09:34:08;101718.72;;;-0.32;100.00
17383;BME280;8809;51.892;8.384;2023-01-29T09:36:38;101712.22;;;-0.28;100.00
17383;BME280;8809;51.892;8.384;2023-01-29T09:39:05;101715.56;;;-0.29;100.00
17383;BME280;8809;51.892;8.384;2023-01-29T09:41:42;101723.53;;;-0.26;100.00
17383;BME280;8809;51.892;8.384;2023-01-29T09:44:19;101727.34;;;-0.23;100.00
17383;BME280;8809;51.892;8.384;2023-01-29T09:46:51;101723.72;;;-0.25;100.00
17383;BME280;8809;51.892;8.384;2023-01-29T09:49:23;101724.19;;;-0.20;100.00
17383;BME280;8809;51.892;8.384;2023-01-29T09:51:57;101718.59;;;-0.16;100.00
17383;BME280;8809;51.892;8.384;2023-01-29T09:54:29;101716.78;;;-0.17;100.00
17383;BME280;8809;51.892;8.384;2023-01-29T09:56:59;101721.00;;;-0.18;100.00
17383;BME280;8809;51.892;8.384;2023-01-29T09:59:30;101725.72;;;-0.14;100.00
17383;BME280;8809;51.892;8.384;2023-01-29T10:02:08;101723.47;;;-0.11;100.00
17383;BME280;8809;51.892;8.384;2023-01-29T10:04:55;101720.44;;;-0.07;100.00
17383;BME280;8809;51.892;8.384;2023-01-29T10:07:37;101719.53;;;-0.07;100.00
17383;BME280;8809;51.892;8.384;2023-01-29T10:10:25;101723.47;;;-0.02;100.00
17383;BME280;8809;51.892;8.384;2023-01-29T10:13:05;101723.47;;;-0.02;100.00
17383;BME280;8809;51.892;8.384;2023-01-29T10:15:44;101713.38;;;-0.01;100.00
17383;BME280;8809;51.892;8.384;2023-01-29T10:21:51;101707.19;;;0.06;100.00
17383;BME280;8809;51.892;8.384;2023-01-29T10:24:32;101697.25;;;0.09;100.00
17383;BME280;8809;51.892;8.384;2023-01-29T10:27:02;101688.03;;;0.11;100.00
17383;BME280;8809;51.892;8.384;2023-01-29T10:29:40;101682.31;;;0.14;100.00
17383;BME280;8809;51.892;8.384;2023-01-29T10:32:11;101675.84;;;0.17;100.00
17383;BME280;8809;51.892;8.384;2023-01-29T10:34:45;101676.28;;;0.22;100.00
17383;BME280;8809;51.892;8.384;2023-01-29T10:37:16;101679.16;;;0.25;100.00
17383;BME280;8809;51.892;8.384;2023-01-29T10:39:45;101663.16;;;0.27;100.00
17383;BME280;8809;51.892;8.384;2023-01-29T10:42:17;101665.25;;;0.31;100.00
17383;BME280;8809;51.892;8.384;2023-01-29T10:45:01;101661.50;;;0.36;100.00
17383;BME280;8809;51.892;8.384;2023-01-29T10:47:48;101654.97;;;0.40;100.00
17383;BME280;8809;51.892;8.384;2023-01-29T10:50:41;101638.25;;;0.44;100.00
17383;BME280;8809;51.892;8.384;2023-01-29T10:53:21;101637.78;;;0.48;100.00
17383;BME280;8809;51.892;8.384;2023-01-29T10:55:58;101641.69;;;0.53;100.00
17383;BME280;8809;51.892;8.384;2023-01-29T10:58:37;101637.78;;;0.56;100.00
17383;BME280;8809;51.892;8.384;2023-01-29T11:01:05;101633.97;;;0.61;100.00
17383;BME280;8809;51.892;8.384;2023-01-29T11:03:33;101623.28;;;0.65;100.00
17383;BME280;8809;51.892;8.384;2023-01-29T11:06:08;101620.22;;;0.69;100.00
17383;BME280;8809;51.892;8.384;2023-01-29T11:08:41;101620.38;;;0.71;100.00
17383;BME280;8809;51.892;8.384;2023-01-29T11:11:13;101623.84;;;0.71;100.00
17383;BME280;8809;51.892;8.384;2023-01-29T11:13:47;101615.53;;;0.74;100.00
17383;BME280;8809;51.892;8.384;2023-01-29T11:16:16;101610.41;;;0.74;100.00
17383;BME280;8809;51.892;8.384;2023-01-29T11:18:52;101620.34;;;0.80;100.00
17383;BME280;8809;51.892;8.384;2023-01-29T11:21:20;101606.91;;;0.82;100.00
17383;BME280;8809;51.892;8.384;2023-01-29T11:23:47;101605.66;;;0.87;100.00
17383;BME280;8809;51.892;8.384;2023-01-29T11:26:19;101598.09;;;0.89;100.00
17383;BME280;8809;51.892;8.384;2023-01-29T11:28:49;101592.38;;;0.91;100.00
17383;BME280;8809;51.892;8.384;2023-01-29T11:31:19;101582.25;;;0.93;100.00
17383;BME280;8809;51.892;8.384;2023-01-29T11:33:47;101581.63;;;0.95;100.00
17383;BME280;8809;51.892;8.384;2023-01-29T11:36:30;101589.63;;;0.98;100.00
17383;BME280;8809;51.892;8.384;2023-01-29T11:39:17;101581.91;;;0.98;100.00
17383;BME280;8809;51.892;8.384;2023-01-29T11:41:54;101573.44;;;0.99;100.00
17383;BME280;8809;51.892;8.384;2023-01-29T11:44:30;101573.75;;;1.02;100.00
17383;BME280;8809;51.892;8.384;2023-01-29T11:47:10;101564.38;;;1.03;100.00
17383;BME280;8809;51.892;8.384;2023-01-29T11:49:40;101568.91;;;1.05;100.00
17383;BME280;8809;51.892;8.384;2023-01-29T11:52:12;101579.44;;;1.08;100.00
17383;BME280;8809;51.892;8.384;2023-01-29T11:54:44;101569.03;;;1.07;100.00
17383;BME280;8809;51.892;8.384;2023-01-29T11:57:26;101562.38;;;1.09;100.00
17383;BME280;8809;51.892;8.384;2023-01-29T11:59:56;101559.94;;;1.10;100.00
17383;BME280;8809;51.892;8.384;2023-01-29T12:02:34;101547.09;;;1.10;100.00
17383;BME280;8809;51.892;8.384;2023-01-29T12:05:05;101538.63;;;1.11;100.00
17383;BME280;8809;51.892;8.384;2023-01-29T12:07:40;101529.41;;;1.14;100.00
17383;BME280;8809;51.892;8.384;2023-01-29T12:10:29;101528.50;;;1.13;100.00
17383;BME280;8809;51.892;8.384;2023-01-29T12:13:05;101513.25;;;1.15;100.00
17383;BME280;8809;51.892;8.384;2023-01-29T12:15:32;101514.00;;;1.14;100.00
17383;BME280;8809;51.892;8.384;2023-01-29T12:18:07;101516.81;;;1.17;100.00
17383;BME280;8809;51.892;8.384;2023-01-29T12:20:42;101522.25;;;1.20;100.00
17383;BME280;8809;51.892;8.384;2023-01-29T12:23:24;101510.31;;;1.20;100.00
17383;BME280;8809;51.892;8.384;2023-01-29T12:25:59;101511.97;;;1.20;100.00
17383;BME280;8809;51.892;8.384;2023-01-29T12:28:38;101500.94;;;1.21;100.00
17383;BME280;8809;51.892;8.384;2023-01-29T12:31:14;101489.16;;;1.23;100.00
17383;BME280;8809;51.892;8.384;2023-01-29T12:33:48;101480.53;;;1.22;100.00
17383;BME280;8809;51.892;8.384;2023-01-29T12:36:22;101478.72;;;1.21;100.00
17383;BME280;8809;51.892;8.384;2023-01-29T12:38:50;101476.00;;;1.20;100.00
17383;BME280;8809;51.892;8.384;2023-01-29T12:41:29;101482.50;;;1.25;100.00
17383;BME280;8809;51.892;8.384;2023-01-29T12:44:03;101474.78;;;1.25;100.00
17383;BME280;8809;51.892;8.384;2023-01-29T12:46:36;101467.06;;;1.25;100.00
17383;BME280;8809;51.892;8.384;2023-01-29T12:49:11;101466.41;;;1.27;100.00
17383;BME280;8809;51.892;8.384;2023-01-29T12:51:47;101457.94;;;1.28;100.00
17383;BME280;8809;51.892;8.384;2023-01-29T12:54:21;101452.81;;;1.28;100.00
17383;BME280;8809;51.892;8.384;2023-01-29T12:56:52;101451.91;;;1.28;100.00
17383;BME280;8809;51.892;8.384;2023-01-29T12:59:27;101460.66;;;1.30;100.00
17383;BME280;8809;51.892;8.384;2023-01-29T13:02:00;101465.94;;;1.31;100.00
17383;BME280;8809;51.892;8.384;2023-01-29T13:04:35;101460.66;;;1.30;100.00
17383;BME280;8809;51.892;8.384;2023-01-29T13:07:11;101452.19;;;1.31;100.00
17383;BME280;8809;51.892;8.384;2023-01-29T13:09:42;101449.78;;;1.32;100.00
17383;BME280;8809;51.892;8.384;2023-01-29T13:12:14;101453.25;;;1.33;100.00
17383;BME280;8809;51.892;8.384;2023-01-29T13:14:47;101454.91;;;1.32;100.00
17383;BME280;8809;51.892;8.384;2023-01-29T13:17:23;101459.16;;;1.32;100.00
17383;BME280;8809;51.892;8.384;2023-01-29T13:19:53;101444.34;;;1.29;100.00